createdAt,value
2022-11-17T05:53:14.116Z,4.45
2022-11-17T05:58:27.290Z,4.38
2022-11-17T06:03:38.132Z,4.07
2022-11-17T06:08:42.593Z,4.11
2022-11-17T06:13:45.394Z,3.97
2022-11-17T06:19:00.986Z,4.08
2022-11-17T06:24:06.984Z,3.98
2022-11-17T06:29:12.511Z,4.39
2022-11-17T06:34:15.416Z,4.40
2022-11-17T06:39:18.243Z,4.43
2022-11-17T06:44:21.043Z,4.34
2022-11-17T06:49:23.893Z,4.29
2022-11-17T06:54:26.803Z,4.65
2022-11-17T06:59:30.012Z,4.64
2022-11-17T07:04:32.907Z,4.91
2022-11-17T07:09:36.628Z,4.60
2022-11-17T07:14:39.481Z,4.68
2022-11-17T07:19:42.359Z,4.91
2022-11-17T07:24:45.298Z,4.89
2022-11-17T07:29:48.127Z,4.69
2022-11-17T07:34:51.394Z,5.04
2022-11-17T07:39:54.326Z,5.13
2022-11-17T07:44:57.189Z,5.07
2022-11-17T07:50:00.788Z,5.09
2022-11-17T07:55:03.709Z,4.86
2022-11-17T08:00:07.230Z,5.19
2022-11-17T08:05:17.562Z,5.29
2022-11-17T08:10:20.622Z,5.30
2022-11-17T08:15:23.483Z,5.41
2022-11-17T08:20:27.921Z,5.51
2022-11-17T08:25:32.136Z,5.38
2022-11-17T08:30:36.181Z,5.76
2022-11-17T08:35:39.073Z,5.88
2022-11-17T08:40:42.877Z,5.90
2022-11-17T08:45:45.644Z,5.91
2022-11-17T08:50:48.925Z,6.00
2022-11-17T08:55:52.294Z,5.84
2022-11-17T09:00:57.601Z,5.90
2022-11-17T09:06:06.425Z,5.85
2022-11-17T09:11:11.505Z,5.86
2022-11-17T09:16:15.367Z,5.74
2022-11-17T09:21:18.205Z,5.83
2022-11-17T09:26:21.152Z,5.80
2022-11-17T09:31:24.084Z,5.97
2022-11-17T09:36:27.241Z,5.96
2022-11-17T09:41:41.226Z,5.99
2022-11-17T09:46:56.655Z,5.91
2022-11-17T09:52:16.150Z,5.90
2022-11-17T09:57:27.739Z,5.91
2022-11-17T10:02:30.931Z,5.86
2022-11-17T10:07:36.099Z,6.02
2022-11-17T10:12:47.908Z,5.80
2022-11-17T10:17:51.740Z,6.50
2022-11-17T10:22:56.049Z,6.20
2022-11-17T10:27:58.839Z,6.07
2022-11-17T10:33:05.752Z,6.33
2022-11-17T10:38:08.704Z,6.41
2022-11-17T10:43:14.484Z,6.15
2022-11-17T10:48:36.903Z,6.40
2022-11-17T10:53:46.807Z,6.42
2022-11-17T10:58:59.424Z,6.32
2022-11-17T11:04:04.078Z,6.11
2022-11-17T11:09:20.519Z,6.36
2022-11-17T11:14:33.611Z,6.16
2022-11-17T11:19:36.551Z,6.43
2022-11-17T11:24:50.308Z,6.45
2022-11-17T11:30:01.705Z,6.50
2022-11-17T11:35:33.745Z,6.55
2022-11-17T11:40:40.519Z,6.47
2022-11-17T11:46:01.710Z,6.31
2022-11-17T11:51:11.947Z,6.59
2022-11-17T11:56:19.001Z,6.96
2022-11-17T12:01:23.472Z,6.87
2022-11-17T12:06:41.036Z,6.80
2022-11-17T12:12:03.380Z,6.77
2022-11-17T12:17:07.944Z,6.85
2022-11-17T12:22:23.136Z,6.85
2022-11-17T12:27:34.982Z,6.61
2022-11-17T12:32:46.883Z,6.99
2022-11-17T12:37:49.731Z,7.01
2022-11-17T12:43:17.160Z,7.06
2022-11-17T12:48:35.128Z,7.12
2022-11-17T12:54:04.713Z,7.14
2022-11-17T12:59:32.191Z,7.19
2022-11-17T13:04:49.287Z,7.18
2022-11-17T13:09:58.360Z,7.20
2022-11-17T13:15:03.197Z,7.32
2022-11-17T13:20:27.198Z,7.33
2022-11-17T13:25:30.093Z,7.35
2022-11-17T13:30:33.695Z,7.38
2022-11-17T13:35:36.980Z,7.40
